Time;durP1;ratioP1;P1;durP2;ratioP2;P2;SDS_P1;SDS_P2;PMS_P1;PMS_P2;Temp;Humidity;BMP_temperature;BMP_pressure;BME280_temperature;BME280_humidity;BME280_pressure;Samples;Min_cycle;Max_cycle;Signal;HPM_P1;HPM_P2
2024/01/14 00:00:37;;;;;;;42.42;18.88;;;;;;;;;;6305987;22;20048;-77
2024/01/14 00:03:22;;;;;;;48.75;18.80;;;;;;;;;;6305175;22;20018;-78
2024/01/14 00:06:08;;;;;;;43.53;20.67;;;;;;;;;;6303938;22;20002;-76
2024/01/14 00:08:53;;;;;;;42.70;19.35;;;;;;;;;;6306464;22;20055;-79
2024/01/14 00:11:38;;;;;;;46.67;20.52;;;;;;;;;;6304976;22;20011;-78
2024/01/14 00:14:24;;;;;;;40.80;20.02;;;;;;;;;;6306265;22;20009;-78
2024/01/14 00:17:10;;;;;;;49.55;21.08;;;;;;;;;;6306329;22;20002;-78
2024/01/14 00:19:56;;;;;;;47.40;21.77;;;;;;;;;;6306143;22;20005;-78
2024/01/14 00:22:41;;;;;;;46.83;22.25;;;;;;;;;;6306617;22;20003;-78
2024/01/14 00:25:26;;;;;;;43.78;20.42;;;;;;;;;;6306066;22;20068;-78
2024/01/14 00:28:12;;;;;;;47.08;20.55;;;;;;;;;;6306458;22;19994;-79
2024/01/14 00:30:57;;;;;;;47.05;21.60;;;;;;;;;;6305716;22;20038;-78
2024/01/14 00:33:42;;;;;;;43.33;19.75;;;;;;;;;;6306495;22;20077;-78
2024/01/14 00:36:27;;;;;;;47.85;21.45;;;;;;;;;;6306497;22;20074;-78
2024/01/14 00:39:13;;;;;;;47.85;21.52;;;;;;;;;;6305895;22;20005;-78
2024/01/14 00:41:58;;;;;;;49.70;20.10;;;;;;;;;;6306856;22;20006;-77
2024/01/14 00:44:43;;;;;;;54.05;22.70;;;;;;;;;;6306601;22;19999;-78
2024/01/14 00:47:30;;;;;;;41.03;21.65;;;;;;;;;;6306012;22;19998;-77
2024/01/14 00:50:15;;;;;;;44.10;18.92;;;;;;;;;;6303928;22;19998;-77
2024/01/14 00:53:00;;;;;;;50.92;20.67;;;;;;;;;;6283546;22;20086;-77
2024/01/14 00:55:46;;;;;;;53.08;21.90;;;;;;;;;;6305793;22;20453;-78
2024/01/14 00:58:31;;;;;;;49.38;22.55;;;;;;;;;;6284489;22;20003;-78
2024/01/14 01:01:16;;;;;;;47.10;21.17;;;;;;;;;;6305487;22;20382;-77
2024/01/14 01:04:01;;;;;;;45.20;19.70;;;;;;;;;;6305687;22;20045;-78
2024/01/14 01:06:46;;;;;;;48.90;19.77;;;;;;;;;;6283733;22;20419;-79
2024/01/14 01:09:32;;;;;;;45.67;19.67;;;;;;;;;;6303381;22;20313;-80
2024/01/14 01:12:17;;;;;;;47.05;19.73;;;;;;;;;;6304842;22;20022;-78
2024/01/14 01:15:05;;;;;;;42.65;20.90;;;;;;;;;;6306669;22;20287;-80
2024/01/14 01:17:50;;;;;;;49.42;21.08;;;;;;;;;;6306384;22;19999;-78
2024/01/14 01:20:35;;;;;;;47.00;20.95;;;;;;;;;;6306164;22;20003;-78
2024/01/14 01:23:20;;;;;;;39.47;20.30;;;;;;;;;;6306135;22;20007;-78
2024/01/14 01:26:06;;;;;;;40.20;19.15;;;;;;;;;;6305809;22;20002;-78
2024/01/14 01:28:51;;;;;;;43.03;20.92;;;;;;;;;;6305133;22;19998;-79
2024/01/14 01:31:36;;;;;;;45.47;20.95;;;;;;;;;;6305656;22;19995;-78
2024/01/14 01:34:22;;;;;;;47.10;20.50;;;;;;;;;;6305656;22;20001;-77
2024/01/14 01:37:07;;;;;;;48.13;21.13;;;;;;;;;;6304749;22;20421;-78
2024/01/14 01:39:54;;;;;;;44.08;20.27;;;;;;;;;;6307637;22;20010;-78
2024/01/14 01:42:40;;;;;;;51.08;23.05;;;;;;;;;;6307864;22;20020;-77
2024/01/14 01:45:25;;;;;;;45.65;20.00;;;;;;;;;;6307503;22;20528;-77
2024/01/14 01:48:11;;;;;;;45.78;20.98;;;;;;;;;;6307033;22;20415;-76
2024/01/14 01:50:56;;;;;;;49.15;20.15;;;;;;;;;;6307734;22;20076;-77
2024/01/14 01:53:42;;;;;;;46.80;21.05;;;;;;;;;;6308383;22;19999;-77
2024/01/14 01:56:27;;;;;;;46.28;20.58;;;;;;;;;;6307527;22;20003;-76
2024/01/14 01:59:12;;;;;;;45.92;20.45;;;;;;;;;;6307592;22;20316;-76
2024/01/14 02:01:58;;;;;;;45.60;19.65;;;;;;;;;;6307932;22;20443;-77
2024/01/14 02:04:45;;;;;;;46.30;20.08;;;;;;;;;;6306528;22;20536;-77
2024/01/14 02:07:30;;;;;;;52.30;22.65;;;;;;;;;;6306552;22;20002;-77
2024/01/14 02:10:15;;;;;;;47.75;21.15;;;;;;;;;;6307586;22;20069;-77
2024/01/14 02:13:01;;;;;;;43.70;19.90;;;;;;;;;;6307032;22;20010;-78
2024/01/14 02:15:46;;;;;;;47.67;21.02;;;;;;;;;;6286164;22;20009;-77
2024/01/14 02:18:31;;;;;;;46.20;21.58;;;;;;;;;;6307010;22;20082;-78
2024/01/14 02:21:18;;;;;;;57.67;22.10;;;;;;;;;;6307225;22;20427;-78
2024/01/14 02:24:23;;;;;;;49.50;22.17;;;;;;;;;;6306942;22;20102;-78
2024/01/14 02:27:09;;;;;;;53.22;22.00;;;;;;;;;;6307364;22;19999;-77
2024/01/14 02:29:54;;;;;;;52.80;23.15;;;;;;;;;;6307746;22;20003;-78
2024/01/14 02:32:39;;;;;;;43.20;19.90;;;;;;;;;;6307407;22;20433;-77
2024/01/14 02:35:24;;;;;;;48.92;22.00;;;;;;;;;;6306521;22;20462;-78
2024/01/14 02:38:09;;;;;;;47.70;20.20;;;;;;;;;;6307409;22;20328;-78
2024/01/14 02:40:55;;;;;;;47.35;20.83;;;;;;;;;;6306957;22;20006;-79
2024/01/14 02:43:40;;;;;;;45.58;21.85;;;;;;;;;;6306777;22;19995;-79
2024/01/14 02:46:26;;;;;;;54.03;21.70;;;;;;;;;;6307019;22;19991;-79
2024/01/14 02:49:11;;;;;;;50.30;22.40;;;;;;;;;;6307357;22;20211;-78
2024/01/14 02:51:56;;;;;;;46.35;20.95;;;;;;;;;;6306003;22;20431;-79
2024/01/14 02:54:41;;;;;;;43.63;19.45;;;;;;;;;;6306535;22;20007;-77
2024/01/14 02:57:27;;;;;;;51.40;21.75;;;;;;;;;;6306665;22;19995;-77
2024/01/14 03:00:12;;;;;;;43.15;19.45;;;;;;;;;;6307191;22;20053;-77
2024/01/14 03:02:57;;;;;;;46.42;20.55;;;;;;;;;;6306445;22;19995;-77
2024/01/14 03:05:43;;;;;;;41.13;18.95;;;;;;;;;;6311595;22;20006;-76
2024/01/14 03:08:28;;;;;;;46.83;21.17;;;;;;;;;;6311579;22;20055;-77
2024/01/14 03:11:13;;;;;;;44.80;20.73;;;;;;;;;;6311541;22;20064;-76
2024/01/14 03:13:59;;;;;;;49.90;21.48;;;;;;;;;;6311161;22;19999;-77
2024/01/14 03:16:44;;;;;;;46.15;21.85;;;;;;;;;;6311427;22;20427;-77
2024/01/14 03:19:29;;;;;;;46.40;19.60;;;;;;;;;;6311018;22;20006;-76
2024/01/14 03:22:15;;;;;;;48.55;20.10;;;;;;;;;;6310839;22;20006;-76
2024/01/14 03:25:00;;;;;;;50.00;20.83;;;;;;;;;;6311117;22;19991;-78
2024/01/14 03:27:45;;;;;;;48.03;21.40;;;;;;;;;;6311319;22;19991;-76
2024/01/14 03:30:30;;;;;;;46.35;20.38;;;;;;;;;;6308376;22;20002;-76
2024/01/14 03:33:16;;;;;;;47.63;19.77;;;;;;;;;;6310237;22;20026;-77
2024/01/14 03:36:01;;;;;;;47.55;21.75;;;;;;;;;;6311730;22;20044;-76
2024/01/14 03:38:46;;;;;;;44.03;17.73;;;;;;;;;;6310304;22;20343;-77
2024/01/14 03:41:31;;;;;;;42.95;19.25;;;;;;;;;;6310565;22;20429;-78
2024/01/14 03:44:17;;;;;;;44.58;19.73;;;;;;;;;;6310772;22;20002;-77
2024/01/14 03:47:02;;;;;;;49.13;21.20;;;;;;;;;;6311499;22;20072;-78
2024/01/14 03:49:47;;;;;;;41.40;20.92;;;;;;;;;;6310553;22;20051;-77
2024/01/14 03:52:32;;;;;;;44.00;19.35;;;;;;;;;;6311635;22;20349;-77
2024/01/14 03:55:18;;;;;;;40.97;19.23;;;;;;;;;;6311472;22;20378;-78
2024/01/14 03:58:03;;;;;;;38.60;17.15;;;;;;;;;;6310549;22;19994;-78
2024/01/14 04:00:48;;;;;;;42.85;20.02;;;;;;;;;;6310561;22;19998;-77
2024/01/14 04:03:36;;;;;;;42.83;19.25;;;;;;;;;;6306889;22;20003;-78
2024/01/14 04:06:23;;;;;;;38.15;17.05;;;;;;;;;;6286586;22;20074;-77
2024/01/14 04:09:09;;;;;;;40.75;18.50;;;;;;;;;;6305369;22;20033;-77
2024/01/14 04:11:55;;;;;;;40.13;19.98;;;;;;;;;;6306155;22;20018;-77
2024/01/14 04:14:40;;;;;;;43.85;19.13;;;;;;;;;;6306667;22;19995;-77
2024/01/14 04:17:25;;;;;;;37.60;17.17;;;;;;;;;;6305042;22;20086;-77
2024/01/14 04:20:11;;;;;;;43.15;19.00;;;;;;;;;;6306272;22;19991;-77
2024/01/14 04:22:56;;;;;;;46.45;21.90;;;;;;;;;;6306610;22;20006;-78
2024/01/14 04:25:41;;;;;;;41.72;19.30;;;;;;;;;;6306279;22;20002;-75
2024/01/14 04:28:29;;;;;;;53.08;21.52;;;;;;;;;;6306377;22;20082;-78
2024/01/14 04:31:14;;;;;;;53.75;21.88;;;;;;;;;;6306098;22;20007;-76
2024/01/14 04:34:03;;;;;;;50.30;22.33;;;;;;;;;;6305124;22;20165;-76
2024/01/14 04:36:48;;;;;;;49.22;22.08;;;;;;;;;;6306308;22;20494;-76
2024/01/14 04:39:33;;;;;;;49.90;23.52;;;;;;;;;;6306135;22;20001;-78
2024/01/14 04:42:18;;;;;;;55.08;22.90;;;;;;;;;;6306738;22;19998;-77
2024/01/14 04:45:04;;;;;;;53.17;23.67;;;;;;;;;;6306819;22;19998;-76
2024/01/14 04:47:49;;;;;;;49.03;21.27;;;;;;;;;;6306702;22;19999;-77
2024/01/14 04:50:35;;;;;;;54.25;22.73;;;;;;;;;;6305950;22;20003;-78
2024/01/14 04:53:21;;;;;;;57.45;21.05;;;;;;;;;;6305336;22;19998;-77
2024/01/14 04:56:10;;;;;;;48.30;20.05;;;;;;;;;;6306173;22;19999;-78
2024/01/14 04:58:55;;;;;;;41.05;19.42;;;;;;;;;;6306345;22;20014;-75
2024/01/14 05:01:40;;;;;;;46.40;21.30;;;;;;;;;;6304044;22;20005;-75
2024/01/14 05:04:25;;;;;;;49.83;20.63;;;;;;;;;;6310646;22;19998;-77
2024/01/14 05:07:09;;;;;;;37.88;17.85;;;;;;;;;;6331715;22;20031;-76
2024/01/14 05:09:53;;;;;;;50.08;20.38;;;;;;;;;;6332300;22;20055;-77
2024/01/14 05:12:38;;;;;;;55.33;21.85;;;;;;;;;;6332661;22;20034;-76
2024/01/14 05:15:23;;;;;;;53.63;21.50;;;;;;;;;;6333742;22;20287;-76
2024/01/14 05:18:09;;;;;;;45.78;19.55;;;;;;;;;;6329670;22;20002;-76
2024/01/14 05:20:55;;;;;;;48.97;18.95;;;;;;;;;;6304837;22;20038;-76
2024/01/14 05:23:40;;;;;;;49.28;19.15;;;;;;;;;;6305924;22;20007;-76
2024/01/14 05:26:26;;;;;;;45.78;22.10;;;;;;;;;;6305855;22;20357;-76
2024/01/14 05:29:11;;;;;;;46.30;20.10;;;;;;;;;;6306055;22;20007;-77
2024/01/14 05:31:56;;;;;;;47.70;20.90;;;;;;;;;;6305863;22;19995;-76
2024/01/14 05:34:42;;;;;;;55.28;21.35;;;;;;;;;;6305977;22;20511;-76
2024/01/14 05:37:28;;;;;;;43.13;19.05;;;;;;;;;;6305482;22;19994;-76
2024/01/14 05:40:13;;;;;;;52.33;20.98;;;;;;;;;;6304292;22;20499;-76
2024/01/14 05:42:58;;;;;;;49.53;19.48;;;;;;;;;;6305780;22;20427;-76
2024/01/14 05:45:43;;;;;;;42.17;17.90;;;;;;;;;;6305864;22;19999;-76
2024/01/14 05:48:29;;;;;;;47.08;21.40;;;;;;;;;;6305272;22;19998;-76
2024/01/14 05:51:15;;;;;;;45.70;19.05;;;;;;;;;;6306176;22;20174;-76
2024/01/14 05:54:00;;;;;;;56.40;21.73;;;;;;;;;;6306275;22;20431;-76
2024/01/14 05:56:45;;;;;;;51.72;20.65;;;;;;;;;;6306042;22;20099;-76
2024/01/14 05:59:30;;;;;;;49.80;21.73;;;;;;;;;;6303730;22;20022;-78
2024/01/14 06:02:16;;;;;;;41.22;18.35;;;;;;;;;;6306132;22;19999;-77
2024/01/14 06:05:01;;;;;;;49.95;19.17;;;;;;;;;;6305971;22;20327;-78
2024/01/14 06:07:46;;;;;;;45.63;20.70;;;;;;;;;;6304030;22;20332;-78
2024/01/14 06:10:31;;;;;;;50.08;20.48;;;;;;;;;;6306311;22;20006;-76
2024/01/14 06:13:17;;;;;;;39.88;19.73;;;;;;;;;;6274685;22;20015;-76
2024/01/14 06:16:02;;;;;;;46.63;19.70;;;;;;;;;;6272529;22;20019;-76
2024/01/14 06:18:47;;;;;;;36.88;17.02;;;;;;;;;;6295887;22;19999;-77
2024/01/14 06:21:33;;;;;;;44.97;17.85;;;;;;;;;;6274960;22;20007;-77
2024/01/14 06:24:18;;;;;;;41.42;18.58;;;;;;;;;;6275199;22;20768;-77
2024/01/14 06:27:03;;;;;;;40.33;17.98;;;;;;;;;;6276219;22;20548;-76
2024/01/14 06:29:48;;;;;;;39.42;17.10;;;;;;;;;;6276931;22;20049;-78
2024/01/14 06:32:34;;;;;;;43.90;18.92;;;;;;;;;;6276005;22;20010;-77
2024/01/14 06:35:19;;;;;;;45.30;18.33;;;;;;;;;;6276642;22;20003;-78
2024/01/14 06:38:04;;;;;;;52.08;19.50;;;;;;;;;;6276464;22;20069;-77
2024/01/14 06:40:49;;;;;;;38.42;18.15;;;;;;;;;;6277114;22;20490;-77
2024/01/14 06:43:35;;;;;;;42.60;19.67;;;;;;;;;;6276518;22;20007;-78
2024/01/14 06:46:20;;;;;;;39.83;18.40;;;;;;;;;;6276328;22;20007;-78
2024/01/14 06:49:05;;;;;;;45.65;20.15;;;;;;;;;;6276694;22;20011;-77
2024/01/14 06:51:50;;;;;;;40.25;17.15;;;;;;;;;;6275550;22;19995;-77
2024/01/14 06:54:37;;;;;;;42.92;18.20;;;;;;;;;;6275928;22;20082;-77
2024/01/14 06:57:23;;;;;;;45.85;19.15;;;;;;;;;;6276390;22;19999;-77
2024/01/14 07:00:09;;;;;;;44.20;20.85;;;;;;;;;;6276226;22;20034;-76
2024/01/14 07:02:54;;;;;;;37.83;18.05;;;;;;;;;;6274874;22;20384;-77
2024/01/14 07:05:39;;;;;;;44.67;19.17;;;;;;;;;;6275171;22;19992;-76
2024/01/14 07:08:25;;;;;;;47.92;18.95;;;;;;;;;;6276685;22;20003;-76
2024/01/14 07:11:10;;;;;;;47.63;19.42;;;;;;;;;;6282061;22;20003;-77
2024/01/14 07:13:55;;;;;;;41.15;18.10;;;;;;;;;;6307010;22;20437;-76
2024/01/14 07:16:40;;;;;;;41.47;19.25;;;;;;;;;;6307423;22;19995;-78
2024/01/14 07:19:25;;;;;;;47.55;19.23;;;;;;;;;;6306651;22;19991;-79
2024/01/14 07:22:11;;;;;;;42.95;18.50;;;;;;;;;;6304025;22;20002;-79
2024/01/14 07:24:56;;;;;;;49.47;20.45;;;;;;;;;;6306365;22;20044;-78
2024/01/14 07:27:41;;;;;;;43.65;20.95;;;;;;;;;;6306720;22;20026;-80
2024/01/14 07:30:26;;;;;;;55.05;21.10;;;;;;;;;;6306578;22;19995;-78
2024/01/14 07:33:12;;;;;;;41.13;17.67;;;;;;;;;;6306558;22;20090;-78
2024/01/14 07:35:57;;;;;;;47.58;19.88;;;;;;;;;;6306867;22;20434;-77
2024/01/14 07:38:42;;;;;;;45.22;19.80;;;;;;;;;;6305811;22;19999;-77
2024/01/14 07:41:28;;;;;;;43.30;18.35;;;;;;;;;;6306321;22;20396;-78
2024/01/14 07:44:13;;;;;;;43.67;18.63;;;;;;;;;;6307023;22;20002;-79
2024/01/14 07:46:58;;;;;;;50.40;19.85;;;;;;;;;;6306488;22;20003;-77
2024/01/14 07:49:48;;;;;;;48.45;20.17;;;;;;;;;;6305786;22;20294;-77
2024/01/14 07:52:33;;;;;;;44.30;18.77;;;;;;;;;;6296825;22;20328;-77
2024/01/14 07:55:18;;;;;;;48.17;19.63;;;;;;;;;;6306759;22;20006;-76
2024/01/14 07:58:04;;;;;;;46.08;20.15;;;;;;;;;;6305281;22;20391;-77
2024/01/14 08:00:49;;;;;;;47.15;20.25;;;;;;;;;;6305774;22;19999;-76
2024/01/14 08:03:35;;;;;;;42.42;19.65;;;;;;;;;;6304639;22;20081;-76
2024/01/14 08:06:22;;;;;;;42.80;18.83;;;;;;;;;;6306356;22;20003;-77
2024/01/14 08:09:09;;;;;;;44.58;19.88;;;;;;;;;;6306234;22;19999;-77
2024/01/14 08:11:54;;;;;;;40.20;17.92;;;;;;;;;;6306027;22;20019;-76
2024/01/14 08:14:40;;;;;;;45.13;19.85;;;;;;;;;;6306290;22;19995;-76
2024/01/14 08:17:28;;;;;;;40.47;17.95;;;;;;;;;;6305540;22;20017;-76
2024/01/14 08:20:13;;;;;;;43.70;17.38;;;;;;;;;;6308098;22;19994;-82
2024/01/14 08:22:58;;;;;;;47.10;20.25;;;;;;;;;;6286566;22;20006;-80
2024/01/14 08:25:45;;;;;;;39.60;16.83;;;;;;;;;;6309737;22;19998;-79
2024/01/14 08:28:34;;;;;;;44.72;20.50;;;;;;;;;;6315303;22;20003;-81
2024/01/14 08:31:19;;;;;;;;;;;;;;;;;;6316117;22;20003;-80
2024/01/14 08:34:05;;;;;;;39.67;18.52;;;;;;;;;;6313033;22;19902;-80
2024/01/14 08:36:50;;;;;;;40.53;18.63;;;;;;;;;;6315654;22;20461;-80
2024/01/14 08:39:35;;;;;;;40.92;18.52;;;;;;;;;;6319495;22;20050;-78
2024/01/14 08:42:20;;;;;;;42.58;19.65;;;;;;;;;;6309005;22;20051;-81
2024/01/14 08:45:06;;;;;;;44.83;18.95;;;;;;;;;;6307115;22;20455;-81
2024/01/14 08:47:51;;;;;;;44.10;18.65;;;;;;;;;;6306908;22;20006;-81
2024/01/14 08:50:36;;;;;;;44.80;19.35;;;;;;;;;;6307602;22;19994;-82
2024/01/14 08:53:21;;;;;;;43.97;19.42;;;;;;;;;;6306609;22;20007;-80
2024/01/14 08:56:07;;;;;;;46.97;20.50;;;;;;;;;;6306426;22;20013;-82
2024/01/14 08:58:52;;;;;;;43.42;20.70;;;;;;;;;;6305865;22;20009;-80
2024/01/14 09:01:37;;;;;;;46.47;20.90;;;;;;;;;;6306856;22;19999;-80
2024/01/14 09:04:22;;;;;;;46.63;19.25;;;;;;;;;;6308062;22;19998;-81
2024/01/14 09:07:08;;;;;;;46.30;19.40;;;;;;;;;;6306753;22;20466;-83
2024/01/14 09:09:53;;;;;;;45.17;20.83;;;;;;;;;;6306529;22;20081;-79
2024/01/14 09:12:38;;;;;;;48.83;22.13;;;;;;;;;;6304770;22;20020;-83
2024/01/14 09:15:24;;;;;;;48.17;19.83;;;;;;;;;;6305578;22;20009;-80
2024/01/14 09:18:09;;;;;;;45.60;19.60;;;;;;;;;;6305539;22;20007;-80
2024/01/14 09:20:54;;;;;;;45.40;20.58;;;;;;;;;;6303541;22;20003;-80
2024/01/14 09:23:39;;;;;;;43.78;21.08;;;;;;;;;;6305049;22;20003;-82
2024/01/14 09:26:24;;;;;;;41.70;20.77;;;;;;;;;;6305186;22;19999;-79
2024/01/14 09:29:10;;;;;;;47.67;20.40;;;;;;;;;;6306159;22;19995;-78
2024/01/14 09:31:55;;;;;;;55.50;20.23;;;;;;;;;;6278385;22;20006;-77
2024/01/14 09:34:40;;;;;;;38.63;20.45;;;;;;;;;;6304766;22;20112;-77
2024/01/14 09:37:26;;;;;;;40.28;19.00;;;;;;;;;;6304687;22;19999;-81
2024/01/14 09:40:11;;;;;;;43.05;20.48;;;;;;;;;;6304342;22;19995;-82
2024/01/14 09:42:58;;;;;;;40.40;19.98;;;;;;;;;;6305558;22;20017;-80
2024/01/14 09:45:44;;;;;;;44.28;21.20;;;;;;;;;;6305920;22;19995;-82
2024/01/14 09:48:31;;;;;;;50.53;22.92;;;;;;;;;;6304176;22;20373;-83
2024/01/14 09:51:17;;;;;;;44.60;20.77;;;;;;;;;;6304435;22;20044;-82
2024/01/14 09:54:03;;;;;;;51.28;23.40;;;;;;;;;;6305952;22;20431;-81
2024/01/14 09:56:50;;;;;;;45.45;21.90;;;;;;;;;;6304603;22;20006;-82
2024/01/14 09:59:35;;;;;;;47.53;22.20;;;;;;;;;;6307083;22;19999;-82
2024/01/14 10:02:21;;;;;;;48.38;21.38;;;;;;;;;;6308476;22;19999;-83
2024/01/14 10:05:07;;;;;;;38.75;19.45;;;;;;;;;;6306733;22;20066;-82
2024/01/14 10:07:52;;;;;;;42.95;20.83;;;;;;;;;;6307958;22;20074;-81
2024/01/14 10:10:37;;;;;;;42.97;20.92;;;;;;;;;;6308188;22;20029;-82
2024/01/14 10:13:22;;;;;;;41.13;18.85;;;;;;;;;;6306905;22;20022;-82
2024/01/14 10:16:10;;;;;;;47.70;21.13;;;;;;;;;;6306465;22;19998;-81
2024/01/14 10:18:56;;;;;;;44.95;21.27;;;;;;;;;;6307321;22;20037;-83
2024/01/14 10:21:41;;;;;;;48.75;20.58;;;;;;;;;;6307127;22;20003;-81
2024/01/14 10:24:26;;;;;;;48.03;22.33;;;;;;;;;;6306686;22;19994;-81
2024/01/14 10:27:11;;;;;;;46.97;20.90;;;;;;;;;;6307258;22;20003;-81
2024/01/14 10:29:57;;;;;;;40.33;19.92;;;;;;;;;;6307829;22;20006;-82
2024/01/14 10:32:42;;;;;;;46.20;23.48;;;;;;;;;;6307846;22;20005;-81
2024/01/14 10:35:28;;;;;;;47.28;21.88;;;;;;;;;;6306177;22;19999;-82
2024/01/14 10:38:13;;;;;;;44.55;20.40;;;;;;;;;;6307743;22;20026;-82
2024/01/14 10:40:58;;;;;;;42.15;18.98;;;;;;;;;;6306719;22;20003;-83
2024/01/14 10:43:44;;;;;;;42.70;20.45;;;;;;;;;;6309096;22;20052;-80
2024/01/14 10:46:30;;;;;;;46.03;23.00;;;;;;;;;;6337246;22;20003;-81
2024/01/14 10:49:17;;;;;;;45.33;20.58;;;;;;;;;;6313879;22;20304;-80
2024/01/14 10:52:12;;;;;;;44.20;21.10;;;;;;;;;;6307653;22;19991;-82
2024/01/14 10:55:02;;;;;;;41.13;18.38;;;;;;;;;;6308500;22;20001;-79
2024/01/14 10:57:48;;;;;;;44.38;20.13;;;;;;;;;;6308390;22;20029;-82
2024/01/14 11:00:34;;;;;;;38.58;18.42;;;;;;;;;;6306850;22;20030;-83
2024/01/14 11:03:20;;;;;;;41.78;20.77;;;;;;;;;;6308222;22;19994;-81
2024/01/14 11:06:06;;;;;;;45.45;21.48;;;;;;;;;;6306065;22;19995;-82
2024/01/14 11:08:51;;;;;;;41.53;19.05;;;;;;;;;;6306998;22;20007;-82
2024/01/14 11:11:41;;;;;;;42.60;20.30;;;;;;;;;;6306869;22;20018;-82
2024/01/14 11:14:26;;;;;;;;;;;;;;;;;;6308767;22;19995;-84
2024/01/14 11:17:32;;;;;;;38.72;19.25;;;;;;;;;;6307881;22;19909;-81
2024/01/14 11:20:20;;;;;;;43.22;19.15;;;;;;;;;;6308169;22;19999;-81
2024/01/14 11:23:06;;;;;;;36.33;19.40;;;;;;;;;;6306522;22;20009;-81
2024/01/14 11:25:54;;;;;;;40.22;20.00;;;;;;;;;;6307807;22;19999;-81
2024/01/14 11:28:43;;;;;;;40.03;19.60;;;;;;;;;;6308251;22;19995;-81
2024/01/14 11:31:47;;;;;;;36.47;18.73;;;;;;;;;;6306972;22;20003;-81
2024/01/14 11:34:44;;;;;;;39.40;20.33;;;;;;;;;;6307606;22;19995;-82
2024/01/14 11:37:29;;;;;;;38.35;18.67;;;;;;;;;;6307905;22;19994;-82
2024/01/14 11:40:18;;;;;;;37.10;19.45;;;;;;;;;;6286892;22;19995;-81
2024/01/14 11:43:10;;;;;;;40.33;20.58;;;;;;;;;;6307070;22;20348;-83
2024/01/14 11:45:55;;;;;;;39.67;19.13;;;;;;;;;;6307685;22;20030;-84
2024/01/14 11:48:41;;;;;;;38.17;18.98;;;;;;;;;;6307813;22;20033;-86
2024/01/14 11:51:26;;;;;;;43.63;20.80;;;;;;;;;;6307952;22;20001;-83
2024/01/14 11:54:12;;;;;;;40.70;21.00;;;;;;;;;;6308733;22;20007;-83
2024/01/14 11:56:58;;;;;;;40.70;20.27;;;;;;;;;;6307633;22;20009;-82
2024/01/14 11:59:45;;;;;;;40.22;19.17;;;;;;;;;;6306265;22;20626;-81
2024/01/14 12:02:30;;;;;;;36.25;19.58;;;;;;;;;;6307381;22;20013;-82
2024/01/14 12:05:15;;;;;;;40.13;20.20;;;;;;;;;;6307367;22;19999;-80
2024/01/14 12:08:00;;;;;;;39.50;19.25;;;;;;;;;;6308322;22;19999;-85
2024/01/14 12:10:46;;;;;;;44.00;20.05;;;;;;;;;;6307554;22;20671;-84
2024/01/14 12:13:31;;;;;;;34.20;17.23;;;;;;;;;;6277248;22;20459;-86
2024/01/14 12:16:16;;;;;;;35.03;18.02;;;;;;;;;;6275880;22;19996;-83
2024/01/14 12:19:13;;;;;;;37.58;18.73;;;;;;;;;;6276417;22;20088;-84
2024/01/14 12:21:58;;;;;;;37.60;19.40;;;;;;;;;;6275744;22;20010;-84
2024/01/14 12:24:43;;;;;;;39.42;18.48;;;;;;;;;;6275981;22;19999;-86
2024/01/14 12:27:30;;;;;;;37.15;20.15;;;;;;;;;;6277045;22;20027;-84
2024/01/14 12:30:30;;;;;;;33.58;18.63;;;;;;;;;;6254536;22;20031;-85
2024/01/14 12:33:15;;;;;;;37.38;18.23;;;;;;;;;;6275702;22;19999;-85
2024/01/14 12:36:00;;;;;;;34.45;17.73;;;;;;;;;;6275489;22;20003;-84
2024/01/14 12:38:46;;;;;;;32.17;16.83;;;;;;;;;;6275614;22;20003;-83
2024/01/14 12:41:31;;;;;;;36.33;18.10;;;;;;;;;;6274440;22;20378;-81
2024/01/14 12:44:16;;;;;;;35.58;17.10;;;;;;;;;;6275376;22;20003;-81
2024/01/14 12:47:05;;;;;;;31.67;16.77;;;;;;;;;;6274822;22;20444;-80
2024/01/14 12:49:53;;;;;;;35.88;16.88;;;;;;;;;;6274983;22;19995;-80
2024/01/14 12:52:38;;;;;;;31.30;17.40;;;;;;;;;;6294633;22;20015;-82
2024/01/14 12:55:28;;;;;;;31.67;18.33;;;;;;;;;;6276082;22;20003;-80
2024/01/14 12:58:14;;;;;;;30.77;15.68;;;;;;;;;;6297937;22;20389;-81
2024/01/14 13:00:59;;;;;;;37.90;18.25;;;;;;;;;;6276083;22;20428;-78
2024/01/14 13:03:45;;;;;;;32.70;16.52;;;;;;;;;;6275548;22;20007;-79
2024/01/14 13:06:30;;;;;;;34.50;16.52;;;;;;;;;;6274919;22;20078;-79
2024/01/14 13:09:16;;;;;;;35.50;16.13;;;;;;;;;;6274630;22;20078;-80
2024/01/14 13:12:01;;;;;;;33.03;14.48;;;;;;;;;;6274295;22;20023;-79
2024/01/14 13:14:46;;;;;;;35.70;16.38;;;;;;;;;;6275274;22;20010;-80
2024/01/14 13:17:32;;;;;;;38.78;17.88;;;;;;;;;;6277201;22;20006;-82
2024/01/14 13:20:17;;;;;;;32.50;17.70;;;;;;;;;;6266141;22;20042;-81
2024/01/14 13:23:05;;;;;;;33.67;17.58;;;;;;;;;;6268213;22;20044;-80
2024/01/14 13:25:50;;;;;;;36.88;16.23;;;;;;;;;;6290729;22;19991;-81
2024/01/14 13:28:38;;;;;;;27.58;15.80;;;;;;;;;;6294346;22;20284;-84
2024/01/14 13:31:23;;;;;;;36.10;17.30;;;;;;;;;;6294800;22;20010;-85
2024/01/14 13:34:14;;;;;;;32.17;15.98;;;;;;;;;;6300551;22;19996;-84
2024/01/14 13:37:00;;;;;;;31.60;15.52;;;;;;;;;;6303385;22;20013;-83
2024/01/14 13:39:45;;;;;;;31.33;14.68;;;;;;;;;;6274491;22;20428;-84
2024/01/14 13:42:30;;;;;;;30.23;15.23;;;;;;;;;;6274148;22;19995;-83
2024/01/14 13:45:16;;;;;;;34.22;17.05;;;;;;;;;;6294227;22;20022;-84
2024/01/14 13:48:01;;;;;;;32.42;15.93;;;;;;;;;;6277566;22;20074;-85
2024/01/14 13:50:46;;;;;;;31.50;15.23;;;;;;;;;;6272249;22;20009;-83
2024/01/14 13:53:31;;;;;;;30.88;14.55;;;;;;;;;;6268174;22;20436;-83
2024/01/14 13:56:17;;;;;;;29.23;14.02;;;;;;;;;;6270406;22;20439;-84
2024/01/14 13:59:02;;;;;;;29.95;14.07;;;;;;;;;;6268020;22;20022;-84
2024/01/14 14:01:47;;;;;;;29.60;13.88;;;;;;;;;;6269498;22;20376;-83
2024/01/14 14:04:32;;;;;;;27.30;15.25;;;;;;;;;;6267211;22;19999;-82
2024/01/14 14:07:17;;;;;;;28.95;15.07;;;;;;;;;;6266390;22;20443;-83
2024/01/14 14:10:03;;;;;;;36.88;17.67;;;;;;;;;;6271612;22;19995;-82
2024/01/14 14:12:48;;;;;;;33.97;16.05;;;;;;;;;;6272435;22;20090;-82
2024/01/14 14:15:34;;;;;;;26.98;15.70;;;;;;;;;;6273004;22;19995;-82
2024/01/14 14:18:19;;;;;;;26.67;12.90;;;;;;;;;;6259172;22;19999;-82
2024/01/14 14:21:07;;;;;;;36.53;14.82;;;;;;;;;;6272625;22;20391;-82
2024/01/14 14:23:55;;;;;;;31.05;15.80;;;;;;;;;;6272903;22;20014;-82
2024/01/14 14:26:41;;;;;;;30.08;14.15;;;;;;;;;;6250661;22;20003;-82
2024/01/14 14:29:26;;;;;;;26.08;12.80;;;;;;;;;;6266982;22;20081;-81
2024/01/14 14:32:11;;;;;;;28.30;13.40;;;;;;;;;;6273149;22;20350;-82
2024/01/14 14:34:57;;;;;;;39.08;15.80;;;;;;;;;;6273497;22;20075;-83
2024/01/14 14:37:42;;;;;;;35.60;16.23;;;;;;;;;;6264724;22;20000;-82
2024/01/14 14:40:27;;;;;;;32.33;15.73;;;;;;;;;;6266173;22;19995;-80
2024/01/14 14:43:12;;;;;;;36.65;15.82;;;;;;;;;;6268408;22;19999;-82
2024/01/14 14:45:58;;;;;;;36.88;17.77;;;;;;;;;;6266403;22;20309;-83
2024/01/14 14:48:43;;;;;;;38.95;19.35;;;;;;;;;;6268534;22;20030;-84
2024/01/14 14:51:31;;;;;;;36.05;18.35;;;;;;;;;;6270518;22;20002;-82
2024/01/14 14:54:16;;;;;;;35.47;17.42;;;;;;;;;;6270409;22;20003;-84
2024/01/14 14:57:01;;;;;;;40.47;18.58;;;;;;;;;;6273087;22;20086;-81
2024/01/14 14:59:46;;;;;;;32.42;18.02;;;;;;;;;;6272890;22;20005;-84
2024/01/14 15:02:32;;;;;;;36.03;18.90;;;;;;;;;;6270818;22;20003;-85
2024/01/14 15:05:18;;;;;;;39.70;18.50;;;;;;;;;;6273128;22;20327;-82
2024/01/14 15:08:03;;;;;;;34.72;16.55;;;;;;;;;;6272653;22;20003;-83
2024/01/14 15:10:48;;;;;;;39.55;19.27;;;;;;;;;;6272923;22;20466;-83
2024/01/14 15:13:33;;;;;;;39.15;18.73;;;;;;;;;;6301317;22;20025;-84
2024/01/14 15:16:19;;;;;;;34.13;16.60;;;;;;;;;;6301626;22;20006;-83
2024/01/14 15:19:04;;;;;;;37.42;17.95;;;;;;;;;;6303477;22;20013;-82
2024/01/14 15:21:50;;;;;;;34.08;17.98;;;;;;;;;;6299385;22;20339;-83
2024/01/14 15:24:35;;;;;;;37.13;20.08;;;;;;;;;;6296883;22;20030;-81
2024/01/14 15:27:21;;;;;;;37.97;18.73;;;;;;;;;;6292062;22;20052;-81
2024/01/14 15:30:06;;;;;;;38.08;18.88;;;;;;;;;;6296706;22;19994;-82
2024/01/14 15:32:52;;;;;;;34.92;17.92;;;;;;;;;;6298643;22;20006;-82
2024/01/14 15:35:37;;;;;;;36.80;18.75;;;;;;;;;;6299168;22;20464;-82
2024/01/14 15:38:22;;;;;;;39.20;18.67;;;;;;;;;;6301389;22;20637;-82
2024/01/14 15:41:08;;;;;;;41.38;19.02;;;;;;;;;;6303867;22;20072;-82
2024/01/14 15:43:53;;;;;;;34.83;17.42;;;;;;;;;;6302700;22;20447;-82
2024/01/14 15:46:38;;;;;;;41.10;19.27;;;;;;;;;;6303439;22;19999;-83
2024/01/14 15:49:24;;;;;;;36.40;17.73;;;;;;;;;;6301375;22;20003;-86
2024/01/14 15:52:09;;;;;;;40.10;18.00;;;;;;;;;;6302788;22;19997;-81
2024/01/14 15:54:54;;;;;;;41.17;19.95;;;;;;;;;;6303610;22;19999;-82
2024/01/14 15:57:40;;;;;;;33.55;17.17;;;;;;;;;;6301053;22;20454;-81
2024/01/14 16:00:25;;;;;;;50.08;18.67;;;;;;;;;;6301468;22;19995;-86
2024/01/14 16:03:13;;;;;;;39.13;18.45;;;;;;;;;;6302480;22;20034;-82
2024/01/14 16:05:58;;;;;;;38.33;17.60;;;;;;;;;;6296921;22;19995;-82